Bookmark and Share
Track history (hours):
 

Love Boat

Last reported at 2014-Apr-20 12:33 UTC. Time now 2014-Apr-20 13:21 UTC.
Position N 51°15' E 004°23'.

Length 110 m; draft 3 m.

Type: Cargo ship. MMSI: 205386190.

NotesDate/timePositionNaut miles runAvg speedWind from/ knotsBaromVisibWave heightAir tempDewpointWater temp
2014-Apr-20 12:33N 51°15' E 004°23'0 0.0
2014-Apr-20 11:33N 51°15' E 004°23'0 0.0
2014-Apr-20 10:33N 51°15' E 004°23'0 0.0
2014-Apr-20 09:33N 51°15' E 004°23'0 0.0
2014-Apr-20 08:33N 51°15' E 004°23'0 0.0
2014-Apr-20 07:33N 51°15' E 004°23'0 0.0
2014-Apr-20 06:33N 51°15' E 004°23'0 0.0
2014-Apr-20 05:33N 51°15' E 004°23'0 0.0
2014-Apr-20 04:33N 51°15' E 004°23'0 0.0
2014-Apr-20 03:33N 51°15' E 004°23'0 0.0
2014-Apr-20 02:33N 51°15' E 004°23'0 0.0
2014-Apr-20 01:33N 51°15' E 004°23'0 0.0
2014-Apr-20 00:33N 51°15' E 004°23'0 0.0
2014-Apr-19 23:33N 51°15' E 004°23'0 0.0
2014-Apr-19 22:33N 51°15' E 004°23'0 0.0
2014-Apr-19 21:33N 51°15' E 004°23'0 0.0
2014-Apr-19 20:33N 51°15' E 004°23'0 0.0
2014-Apr-19 19:33N 51°15' E 004°23'0 0.0
2014-Apr-19 18:33N 51°15' E 004°23'0 0.0
2014-Apr-19 17:33N 51°15' E 004°23'0 0.0
2014-Apr-19 16:33N 51°15' E 004°23'0 0.0
2014-Apr-19 15:33N 51°15' E 004°23'0 0.0
2014-Apr-19 14:33N 51°15' E 004°23'0 0.0
2014-Apr-19 13:33N 51°15' E 004°23'0 0.0
2014-Apr-19 12:34N 51°15' E 004°23'0 0.0
2014-Apr-19 11:33N 51°15' E 004°23'0 0.0
2014-Apr-19 10:33N 51°15' E 004°23'0 0.1
2014-Apr-19 09:33N 51°15' E 004°23'0 0.0
2014-Apr-19 08:33N 51°15' E 004°23'0 0.0
2014-Apr-19 07:33N 51°15' E 004°23'0 0.4
2014-Apr-19 06:33N 51°15' E 004°24'0 0.0
2014-Apr-18 19:33N 51°15' E 004°24'0 0.5
2014-Apr-18 18:33N 51°14' E 004°25'0 0.0
2014-Apr-18 17:33N 51°14' E 004°25'0 0.0
2014-Apr-18 16:33N 51°14' E 004°25'0 0.0
2014-Apr-18 15:33N 51°14' E 004°25'0 0.0
2014-Apr-18 14:33N 51°14' E 004°25'2 1.7
2014-Apr-18 13:33N 51°14' E 004°28'2 0.1
2014-Apr-17 09:33N 51°14' E 004°30'5 4.8
2014-Apr-17 08:33N 51°16' E 004°23'5 4.8
2014-Apr-17 07:33N 51°20' E 004°18'6 5.9
2014-Apr-17 06:33N 51°25' E 004°14'5 4.8
2014-Apr-17 05:33N 51°30' E 004°13'6 6.5
2014-Apr-17 04:33N 51°36' E 004°11'9 6.7
2014-Apr-17 03:12N 51°41' E 004°23'2 3.4
2014-Apr-17 02:32N 51°42' E 004°26'0 0.0
2014-Apr-17 01:32N 51°42' E 004°26'0 0.0
2014-Apr-17 00:27N 51°42' E 004°26'0 0.0
2014-Apr-16 23:31N 51°42' E 004°26'0 0.0
2014-Apr-16 22:33N 51°42' E 004°26'1 1.0
2014-Apr-16 21:28N 51°42' E 004°28'7 7.2
2014-Apr-16 20:33N 51°43' E 004°38'8 7.6
2014-Apr-16 19:33N 51°48' E 004°47'8 7.8
2014-Apr-16 18:33N 51°49' E 004°60'8 7.9
2014-Apr-16 17:33N 51°49' E 005°13'7 7.2
2014-Apr-16 16:33N 51°50' E 005°24'8 7.9
2014-Apr-16 15:33N 51°54' E 005°35'9 8.8
2014-Apr-16 14:28N 51°52' E 005°50'16 7.3
2014-Apr-16 12:19N 51°49' E 006°15'37 6.2
2014-Apr-16 06:22N 51°16' E 006°42'4 5.4
2014-Apr-16 05:33N 51°12' E 006°44'19 2.0
2014-Apr-15 20:07N 50°55' E 006°58'111 6.0
2014-Apr-15 01:29N 49°20' E 008°28'6 6.2
2014-Apr-15 00:34N 49°15' E 008°25'8 8.4
2014-Apr-14 23:34N 49°07' E 008°22'9 8.8
2014-Apr-14 22:34N 48°59' E 008°16'9 8.5
2014-Apr-14 21:33N 48°52' E 008°08'4 4.2
2014-Apr-14 20:33N 48°48' E 008°06'7 6.6
2014-Apr-14 19:34N 48°44' E 007°58'4 4.0
2014-Apr-14 18:34N 48°41' E 007°54'  

Dump ship's entire track history

sailing weather and tide predictions

Love Boat — OT3861 — position and weather